createdAt,value
2018-08-11T00:00:20.240Z,84.23
2018-08-11T00:02:47.338Z,84.12
2018-08-11T00:05:14.380Z,85.36
2018-08-11T00:07:41.463Z,85.18
2018-08-11T00:10:08.855Z,86.13
2018-08-11T00:12:36.159Z,85.87
2018-08-11T00:15:04.607Z,85.26
2018-08-11T00:17:31.644Z,85.11
2018-08-11T00:19:58.735Z,85.65
2018-08-11T00:22:26.088Z,85.40
2018-08-11T00:24:53.122Z,84.80
2018-08-11T00:27:20.208Z,84.68
2018-08-11T00:29:47.612Z,84.62
2018-08-11T00:32:14.663Z,84.35
2018-08-11T00:34:41.719Z,83.95
2018-08-11T00:37:08.919Z,84.02
2018-08-11T00:39:35.976Z,84.00
2018-08-11T00:42:03.105Z,83.84
2018-08-11T00:44:30.191Z,84.40
2018-08-11T00:46:57.258Z,84.67
2018-08-11T00:49:24.345Z,84.79
2018-08-11T00:51:51.456Z,84.40
2018-08-11T00:54:18.497Z,84.00
2018-08-11T00:56:45.551Z,83.72
2018-08-11T00:59:12.763Z,83.94
2018-08-11T01:01:39.861Z,83.99
2018-08-11T01:04:06.981Z,83.38
2018-08-11T01:06:34.156Z,83.50
2018-08-11T01:09:01.155Z,83.46
2018-08-11T01:11:28.160Z,83.08
2018-08-11T01:13:55.159Z,82.44
2018-08-11T01:16:22.571Z,83.13
2018-08-11T01:18:49.605Z,82.41
2018-08-11T01:21:16.713Z,82.45
2018-08-11T01:23:43.747Z,82.13
2018-08-11T01:26:10.847Z,81.99
2018-08-11T01:28:37.856Z,81.38
2018-08-11T01:31:05.151Z,80.63
2018-08-11T01:33:32.353Z,79.92
2018-08-11T01:35:59.375Z,79.44
2018-08-11T01:38:26.714Z,78.83
2018-08-11T01:40:53.747Z,78.72
2018-08-11T01:43:20.796Z,78.23
2018-08-11T01:45:47.893Z,78.38
2018-08-11T01:48:14.932Z,76.75
2018-08-11T01:50:52.171Z,77.12
2018-08-11T01:53:19.286Z,77.32
2018-08-11T01:55:46.303Z,76.52
2018-08-11T01:58:13.319Z,76.18
2018-08-11T02:00:40.442Z,75.43
2018-08-11T02:03:07.503Z,75.76
2018-08-11T02:05:34.620Z,75.38
2018-08-11T02:08:01.700Z,74.97
2018-08-11T02:10:28.727Z,74.18
2018-08-11T02:12:55.801Z,74.66
2018-08-11T02:15:22.863Z,74.22
2018-08-11T02:17:49.872Z,74.50
2018-08-11T02:20:18.408Z,74.38
2018-08-11T02:22:46.452Z,74.43
2018-08-11T02:25:13.508Z,74.35
2018-08-11T02:27:40.770Z,72.57
2018-08-11T02:30:09.963Z,72.58
2018-08-11T02:32:37.325Z,72.56
2018-08-11T02:35:05.508Z,72.77
2018-08-11T02:37:32.588Z,73.18
2018-08-11T02:39:59.605Z,74.05
2018-08-11T02:42:27.042Z,74.04
2018-08-11T02:44:54.081Z,73.73
2018-08-11T02:47:21.116Z,72.95
2018-08-11T02:49:48.178Z,71.14
2018-08-11T02:52:15.254Z,69.09
2018-08-11T02:54:42.327Z,68.57
2018-08-11T02:57:09.387Z,68.46
2018-08-11T02:59:36.440Z,68.35
2018-08-11T03:02:03.571Z,68.98
2018-08-11T03:04:30.659Z,69.45
2018-08-11T03:06:57.728Z,70.18
2018-08-11T03:09:24.947Z,70.37
2018-08-11T03:11:52.239Z,71.62
2018-08-11T03:14:19.375Z,72.41
2018-08-11T03:16:46.452Z,72.65
2018-08-11T03:19:13.512Z,72.77
2018-08-11T03:21:40.574Z,74.06
2018-08-11T03:24:07.972Z,75.36
2018-08-11T03:26:35.068Z,75.69
2018-08-11T03:29:02.127Z,76.63
2018-08-11T03:31:29.220Z,76.83
2018-08-11T03:33:56.293Z,76.92
2018-08-11T03:36:23.348Z,76.19
2018-08-11T03:38:50.418Z,76.84
2018-08-11T03:41:17.504Z,77.46
2018-08-11T03:43:44.576Z,75.91
2018-08-11T03:46:11.700Z,76.20
2018-08-11T03:48:38.775Z,74.95
2018-08-11T03:51:05.812Z,75.30
2018-08-11T03:53:32.904Z,75.26
2018-08-11T03:55:59.917Z,74.88
2018-08-11T03:58:26.943Z,74.13
2018-08-11T04:00:53.987Z,73.02
2018-08-11T04:03:20.996Z,73.59
2018-08-11T04:05:48.045Z,72.99
2018-08-11T04:08:15.129Z,72.95
2018-08-11T04:10:42.196Z,73.10
2018-08-11T04:13:09.416Z,73.31
2018-08-11T04:15:36.451Z,74.91
2018-08-11T04:18:03.528Z,75.86
2018-08-11T04:20:30.557Z,78.18
2018-08-11T04:22:57.617Z,79.69
2018-08-11T04:25:24.633Z,81.00
2018-08-11T04:27:51.650Z,82.74
2018-08-11T04:30:18.751Z,85.35
2018-08-11T04:32:46.109Z,89.33
2018-08-11T04:35:13.131Z,94.02
2018-08-11T04:37:40.294Z,96.78
2018-08-11T04:40:07.357Z,99.33
2018-08-11T04:42:34.432Z,99.99
2018-08-11T04:45:01.515Z,100.00
2018-08-11T04:47:28.614Z,100.00
2018-08-11T04:50:02.596Z,100.00
2018-08-11T04:52:29.958Z,100.00
2018-08-11T04:54:56.987Z,100.00
2018-08-11T04:57:24.044Z,100.00
2018-08-11T04:59:51.153Z,100.00
2018-08-11T05:02:18.216Z,100.00
2018-08-11T05:04:45.288Z,100.00
2018-08-11T05:07:12.349Z,100.00
2018-08-11T05:09:39.688Z,100.00
2018-08-11T05:12:06.749Z,100.00
2018-08-11T05:14:33.879Z,100.00
2018-08-11T05:17:01.051Z,100.00
2018-08-11T05:19:28.149Z,100.00
2018-08-11T05:21:55.295Z,100.00
2018-08-11T05:24:22.571Z,100.00
2018-08-11T05:26:49.579Z,100.00
2018-08-11T05:29:16.647Z,100.00
2018-08-11T05:31:43.743Z,100.00
2018-08-11T05:34:10.852Z,100.00
2018-08-11T05:36:37.858Z,100.00
2018-08-11T05:39:08.577Z,100.00
2018-08-11T05:41:35.790Z,100.00
2018-08-11T05:44:02.888Z,100.00
2018-08-11T05:46:29.913Z,100.00
2018-08-11T05:48:56.932Z,100.00
2018-08-11T05:51:24.017Z,100.00
2018-08-11T05:53:51.027Z,100.00
2018-08-11T05:56:18.051Z,100.00
2018-08-11T05:58:45.070Z,100.00
2018-08-11T06:01:12.392Z,100.00
2018-08-11T06:03:39.407Z,100.00
2018-08-11T06:06:06.449Z,100.00
2018-08-11T06:08:33.484Z,100.00
2018-08-11T06:11:00.524Z,100.00
2018-08-11T06:13:27.550Z,100.00
2018-08-11T06:15:54.631Z,99.43
2018-08-11T06:18:21.942Z,99.70
2018-08-11T06:20:48.980Z,99.72
2018-08-11T06:23:16.061Z,99.03
2018-08-11T06:25:43.132Z,98.79
2018-08-11T06:28:10.180Z,98.11
2018-08-11T06:30:37.535Z,96.88
2018-08-11T06:33:04.910Z,96.91
2018-08-11T06:35:32.543Z,97.18
2018-08-11T06:37:59.899Z,97.17
2018-08-11T06:40:27.125Z,97.24
2018-08-11T06:42:54.128Z,97.34
2018-08-11T06:45:21.820Z,98.14
2018-08-11T06:47:48.880Z,97.10
2018-08-11T06:50:15.900Z,97.18
2018-08-11T06:52:43.619Z,97.78
2018-08-11T06:55:10.790Z,97.25
2018-08-11T06:57:37.888Z,96.60
2018-08-11T07:00:05.018Z,96.28
2018-08-11T07:02:32.410Z,94.93
2018-08-11T07:04:59.487Z,94.82
2018-08-11T07:07:26.480Z,94.57
2018-08-11T07:09:53.528Z,93.81
2018-08-11T07:12:20.627Z,94.24
2018-08-11T07:14:48.225Z,93.66
2018-08-11T07:17:15.318Z,93.57
2018-08-11T07:19:42.757Z,92.99
2018-08-11T07:22:09.855Z,92.95
2018-08-11T07:24:37.008Z,92.72
2018-08-11T07:27:04.115Z,91.32
2018-08-11T07:29:31.135Z,90.49
2018-08-11T07:31:58.283Z,91.19
2018-08-11T07:34:25.353Z,90.89
2018-08-11T07:36:53.155Z,89.66
2018-08-11T07:39:20.499Z,88.98
2018-08-11T07:41:47.632Z,88.45
2018-08-11T07:44:15.000Z,88.27
2018-08-11T07:46:42.052Z,88.25
2018-08-11T07:49:09.088Z,88.39
2018-08-11T07:51:36.177Z,86.00
2018-08-11T07:54:03.171Z,85.66
2018-08-11T07:56:31.466Z,84.02
2018-08-11T07:58:58.491Z,84.25
2018-08-11T08:01:25.555Z,83.05
2018-08-11T08:03:52.604Z,83.92
2018-08-11T08:06:19.635Z,83.59
2018-08-11T08:08:46.665Z,83.18
2018-08-11T08:11:13.800Z,82.07
2018-08-11T08:13:40.920Z,81.37
2018-08-11T08:16:08.077Z,82.27
2018-08-11T08:18:35.192Z,79.89
2018-08-11T08:21:02.381Z,80.73
2018-08-11T08:23:29.677Z,79.74
2018-08-11T08:25:56.705Z,78.58
2018-08-11T08:28:23.688Z,79.28
2018-08-11T08:30:51.810Z,77.88
2018-08-11T08:33:18.795Z,77.32
2018-08-11T08:35:45.788Z,77.50
2018-08-11T08:38:13.120Z,74.60
2018-08-11T08:40:40.317Z,74.23
2018-08-11T08:43:07.330Z,74.45
2018-08-11T08:45:34.544Z,74.57
2018-08-11T08:48:01.556Z,71.87
2018-08-11T08:50:28.882Z,72.22
2018-08-11T08:52:56.967Z,73.77
2018-08-11T08:55:24.238Z,71.76
2018-08-11T08:57:51.467Z,73.41
2018-08-11T09:00:18.997Z,71.46
2018-08-11T09:02:47.179Z,71.31
2018-08-11T09:05:14.627Z,72.58
2018-08-11T09:07:41.883Z,70.10
2018-08-11T09:10:08.927Z,68.65
2018-08-11T09:12:36.835Z,69.39
2018-08-11T09:15:05.023Z,68.91
2018-08-11T09:17:32.272Z,69.19
2018-08-11T09:20:00.011Z,69.42
2018-08-11T09:22:27.044Z,70.23
2018-08-11T09:24:54.071Z,69.30
2018-08-11T09:27:21.064Z,68.50
2018-08-11T09:29:48.067Z,67.91
2018-08-11T09:32:15.132Z,68.77
2018-08-11T09:34:42.143Z,68.65
2018-08-11T09:37:09.183Z,68.30
2018-08-11T09:39:36.349Z,66.99
2018-08-11T09:42:03.370Z,65.51
2018-08-11T09:44:30.468Z,65.83
2018-08-11T09:46:57.576Z,66.70
2018-08-11T09:49:24.653Z,70.69
2018-08-11T09:51:51.692Z,74.70
2018-08-11T09:54:18.890Z,79.51
2018-08-11T09:56:46.206Z,83.15
2018-08-11T09:59:13.186Z,89.58
2018-08-11T10:01:43.362Z,98.38
2018-08-11T10:04:10.438Z,100.00
2018-08-11T10:06:37.421Z,100.00
2018-08-11T10:09:07.039Z,100.00
2018-08-11T10:11:34.033Z,100.00
2018-08-11T10:14:01.059Z,100.00
2018-08-11T10:16:28.044Z,100.00
2018-08-11T10:18:55.014Z,100.00
2018-08-11T10:21:22.165Z,100.00
2018-08-11T10:23:49.355Z,100.00
2018-08-11T10:26:16.410Z,100.00
2018-08-11T10:28:43.444Z,98.86
2018-08-11T10:31:10.594Z,98.92
2018-08-11T10:33:37.651Z,96.80
2018-08-11T10:36:04.754Z,97.00
2018-08-11T10:41:13.222Z,95.66
2018-08-11T10:43:40.240Z,95.38
2018-08-11T10:46:07.265Z,94.66
2018-08-11T10:48:34.533Z,93.33
2018-08-11T10:51:01.635Z,89.71
2018-08-11T10:53:28.616Z,90.67
2018-08-11T10:55:55.806Z,87.99
2018-08-11T10:58:22.886Z,88.02
2018-08-11T11:00:49.923Z,88.15
2018-08-11T11:03:16.931Z,91.49
2018-08-11T11:05:44.068Z,90.47
2018-08-11T11:08:11.451Z,89.24
2018-08-11T11:10:38.480Z,88.06
2018-08-11T11:13:05.482Z,90.07
2018-08-11T11:15:32.491Z,89.60
2018-08-11T11:17:59.491Z,89.18
2018-08-11T11:20:26.544Z,88.31
2018-08-11T11:22:53.555Z,88.47
2018-08-11T11:25:20.635Z,90.43
2018-08-11T11:27:47.648Z,88.12
2018-08-11T11:30:14.659Z,89.75
2018-08-11T11:32:41.743Z,90.11
2018-08-11T11:35:09.341Z,91.27
2018-08-11T11:37:36.609Z,88.23
2018-08-11T11:40:04.557Z,85.89
2018-08-11T11:42:31.592Z,85.23
2018-08-11T11:44:58.635Z,86.46
2018-08-11T11:47:25.626Z,88.28
2018-08-11T11:49:53.011Z,88.55
2018-08-11T11:52:20.454Z,92.19
2018-08-11T11:54:47.645Z,92.02
2018-08-11T11:57:14.907Z,94.75
2018-08-11T11:59:42.078Z,96.67
2018-08-11T12:02:09.669Z,99.62
2018-08-11T12:04:36.755Z,100.00
2018-08-11T12:07:04.396Z,100.00
2018-08-11T12:09:31.760Z,100.00
2018-08-11T12:11:59.123Z,100.00
2018-08-11T12:14:26.160Z,100.00
2018-08-11T12:16:53.574Z,100.00
2018-08-11T12:19:21.151Z,100.00
2018-08-11T12:21:48.455Z,100.00
2018-08-11T12:24:15.426Z,100.00
2018-08-11T12:26:42.608Z,100.00
2018-08-11T12:29:09.763Z,100.00
2018-08-11T12:31:36.739Z,100.00
2018-08-11T12:34:03.824Z,100.00
2018-08-11T12:36:30.903Z,100.00
2018-08-11T12:38:57.899Z,100.00
2018-08-11T12:41:25.135Z,100.00
2018-08-11T12:43:52.206Z,100.00
2018-08-11T12:46:19.196Z,100.00
2018-08-11T12:48:46.191Z,100.00
2018-08-11T12:51:13.374Z,100.00
2018-08-11T12:53:40.344Z,100.00
2018-08-11T12:56:07.540Z,100.00
2018-08-11T12:58:34.601Z,100.00
2018-08-11T13:01:01.698Z,100.00
2018-08-11T13:03:28.912Z,100.00
2018-08-11T13:05:56.044Z,100.00
2018-08-11T13:08:23.195Z,100.00
2018-08-11T13:10:50.212Z,100.00
2018-08-11T13:13:17.234Z,100.00
2018-08-11T13:15:44.323Z,99.92
2018-08-11T13:18:11.321Z,99.73
2018-08-11T13:20:38.337Z,100.00
2018-08-11T13:23:05.336Z,100.00
2018-08-11T13:25:32.338Z,96.60
2018-08-11T13:27:59.331Z,94.52
2018-08-11T13:30:26.408Z,93.72
2018-08-11T13:32:53.410Z,91.81
2018-08-11T13:35:20.438Z,91.93
2018-08-11T13:37:47.520Z,87.20
2018-08-11T13:40:14.511Z,88.88
2018-08-11T13:42:41.538Z,88.94
2018-08-11T13:45:08.635Z,90.64
2018-08-11T13:47:35.739Z,89.04
2018-08-11T13:50:03.816Z,90.68
2018-08-11T13:52:30.819Z,99.50
2018-08-11T13:54:57.841Z,100.00
2018-08-11T13:57:24.809Z,100.00
2018-08-11T13:59:51.818Z,100.00
2018-08-11T14:02:18.872Z,100.00
2018-08-11T14:04:46.017Z,100.00
2018-08-11T14:07:13.069Z,100.00
2018-08-11T14:09:40.064Z,100.00
2018-08-11T14:12:07.074Z,100.00
2018-08-11T14:14:34.420Z,100.00
2018-08-11T14:17:01.436Z,100.00
2018-08-11T14:19:28.441Z,100.00
2018-08-11T14:21:55.588Z,100.00
2018-08-11T14:24:22.616Z,100.00
2018-08-11T14:26:49.635Z,100.00
2018-08-11T14:29:16.732Z,100.00
2018-08-11T14:31:43.732Z,100.00
2018-08-11T14:34:10.740Z,100.00
2018-08-11T14:36:37.748Z,100.00
2018-08-11T14:39:06.970Z,100.00
2018-08-11T14:41:33.968Z,100.00
2018-08-11T14:44:01.040Z,100.00
2018-08-11T14:46:28.020Z,100.00
2018-08-11T14:48:55.032Z,100.00
2018-08-11T14:51:22.310Z,100.00
2018-08-11T14:53:49.357Z,100.00
2018-08-11T14:56:16.375Z,100.00
2018-08-11T14:58:43.610Z,100.00
2018-08-11T15:01:10.626Z,100.00
2018-08-11T15:03:37.664Z,100.00
2018-08-11T15:06:04.656Z,100.00
2018-08-11T15:08:31.760Z,100.00
2018-08-11T15:10:58.756Z,100.00
2018-08-11T15:13:25.826Z,100.00
2018-08-11T15:15:52.974Z,100.00
2018-08-11T15:18:19.955Z,100.00
2018-08-11T15:20:47.319Z,100.00
2018-08-11T15:23:14.598Z,100.00
2018-08-11T15:25:41.639Z,100.00
2018-08-11T15:28:08.817Z,100.00
2018-08-11T15:30:35.888Z,100.00
2018-08-11T15:33:02.935Z,100.00
2018-08-11T15:35:30.000Z,100.00
2018-08-11T15:37:57.039Z,100.00
2018-08-11T15:40:24.048Z,100.00
2018-08-11T15:42:51.036Z,100.00
2018-08-11T15:45:18.291Z,100.00
2018-08-11T15:47:45.589Z,100.00
2018-08-11T15:50:12.694Z,100.00
2018-08-11T15:52:39.695Z,100.00
2018-08-11T15:55:06.716Z,99.60
2018-08-11T15:57:33.735Z,96.28
2018-08-11T16:00:00.729Z,100.00
2018-08-11T16:02:27.748Z,99.22
2018-08-11T16:04:54.771Z,97.21
2018-08-11T16:07:21.820Z,96.45
2018-08-11T16:09:48.848Z,99.78
2018-08-11T16:12:15.847Z,97.25
2018-08-11T16:14:42.959Z,95.76
2018-08-11T16:17:09.948Z,92.91
2018-08-11T16:19:37.120Z,96.02
2018-08-11T16:22:04.217Z,97.19
2018-08-11T16:24:31.212Z,96.00
2018-08-11T16:26:58.200Z,95.13
2018-08-11T16:29:25.255Z,96.60
2018-08-11T16:31:52.625Z,96.73
2018-08-11T16:34:19.697Z,96.57
2018-08-11T16:36:46.712Z,98.07
2018-08-11T16:39:13.809Z,93.11
2018-08-11T16:41:40.847Z,93.30
2018-08-11T16:44:07.866Z,94.69
2018-08-11T16:46:34.882Z,97.04
2018-08-11T16:49:01.919Z,93.64
2018-08-11T16:51:28.960Z,98.97
2018-08-11T16:53:56.309Z,99.47
2018-08-11T16:56:23.319Z,96.24
2018-08-11T16:58:50.314Z,95.73
2018-08-11T17:01:17.427Z,96.09
2018-08-11T17:03:44.412Z,93.81
2018-08-11T17:06:11.420Z,93.75
2018-08-11T17:08:38.456Z,92.62
2018-08-11T17:11:05.480Z,91.33
2018-08-11T17:16:13.959Z,90.19
2018-08-11T17:18:40.985Z,92.36
2018-08-11T17:21:07.968Z,90.25
2018-08-11T17:23:35.369Z,90.67
2018-08-11T17:26:02.388Z,90.00
2018-08-11T17:28:29.380Z,90.10
2018-08-11T17:30:56.371Z,89.17
2018-08-11T17:33:23.415Z,91.64
2018-08-11T17:35:50.435Z,94.66
2018-08-11T17:38:17.465Z,90.68
2018-08-11T17:40:44.467Z,92.17
2018-08-11T17:43:11.451Z,90.65
2018-08-11T17:45:38.530Z,90.94
2018-08-11T17:48:05.837Z,90.50
2018-08-11T17:50:33.179Z,93.27
2018-08-11T17:53:00.169Z,91.73
2018-08-11T17:55:27.266Z,90.59
2018-08-11T17:57:54.731Z,92.52
2018-08-11T18:00:21.752Z,89.04
2018-08-11T18:02:48.776Z,86.93
2018-08-11T18:05:15.774Z,89.87
2018-08-11T18:07:42.823Z,85.60
2018-08-11T18:10:09.830Z,87.71
2018-08-11T18:12:36.835Z,88.28
2018-08-11T18:15:04.206Z,88.31
2018-08-11T18:17:31.204Z,88.46
2018-08-11T18:19:58.211Z,87.32
2018-08-11T18:22:25.204Z,89.60
2018-08-11T18:24:52.207Z,88.64
2018-08-11T18:27:19.216Z,89.95
2018-08-11T18:29:46.560Z,90.17
2018-08-11T18:32:13.585Z,91.69
2018-08-11T18:34:40.658Z,93.54
2018-08-11T18:37:07.641Z,93.86
2018-08-11T18:39:34.685Z,93.93
2018-08-11T18:42:01.691Z,94.92
2018-08-11T18:44:28.711Z,94.86
2018-08-11T18:46:55.721Z,94.53
2018-08-11T18:49:23.039Z,94.66
2018-08-11T18:51:50.485Z,96.07
2018-08-11T18:54:17.506Z,94.30
2018-08-11T18:56:44.587Z,97.01
2018-08-11T18:59:11.575Z,96.09
2018-08-11T19:01:38.623Z,96.58
2018-08-11T19:04:05.927Z,96.15
2018-08-11T19:06:33.020Z,97.63
2018-08-11T19:08:59.999Z,97.69
2018-08-11T19:11:27.383Z,98.17
2018-08-11T19:13:54.424Z,98.83
2018-08-11T19:16:21.445Z,99.97
2018-08-11T19:18:48.494Z,99.49
2018-08-11T19:21:15.539Z,100.00
2018-08-11T19:23:42.579Z,100.00
2018-08-11T19:26:09.767Z,100.00
2018-08-11T19:28:36.795Z,100.00
2018-08-11T19:31:03.888Z,100.00
2018-08-11T19:33:30.943Z,100.00
2018-08-11T19:35:57.962Z,100.00
2018-08-11T19:38:24.996Z,100.00
2018-08-11T19:40:52.013Z,100.00
2018-08-11T19:43:19.058Z,100.00
2018-08-11T19:45:46.179Z,100.00
2018-08-11T19:48:13.208Z,100.00
2018-08-11T19:50:40.227Z,100.00
2018-08-11T19:53:07.367Z,100.00
2018-08-11T19:55:34.380Z,100.00
2018-08-11T19:58:01.382Z,100.00
2018-08-11T20:00:28.428Z,100.00
2018-08-11T20:02:55.446Z,100.00
2018-08-11T20:05:22.481Z,100.00
2018-08-11T20:07:49.534Z,100.00
2018-08-11T20:10:16.523Z,100.00
2018-08-11T20:12:43.537Z,100.00
2018-08-11T20:15:10.527Z,100.00
2018-08-11T20:17:37.851Z,100.00
2018-08-11T20:20:05.690Z,100.00
2018-08-11T20:22:32.718Z,100.00
2018-08-11T20:24:59.758Z,100.00
2018-08-11T20:27:26.768Z,100.00
2018-08-11T20:29:54.115Z,100.00
2018-08-11T20:32:21.145Z,100.00
2018-08-11T20:34:48.131Z,100.00
2018-08-11T20:37:15.146Z,100.00
2018-08-11T20:39:42.292Z,100.00
2018-08-11T20:42:09.387Z,100.00
2018-08-11T20:44:36.430Z,100.00
2018-08-11T20:47:03.459Z,100.00
2018-08-11T20:49:30.490Z,100.00
2018-08-11T20:51:57.504Z,100.00
2018-08-11T20:54:24.548Z,100.00
2018-08-11T20:56:51.834Z,100.00
2018-08-11T20:59:18.844Z,100.00
2018-08-11T21:01:46.070Z,100.00
2018-08-11T21:04:13.227Z,100.00
2018-08-11T21:06:40.251Z,100.00
2018-08-11T21:09:09.282Z,100.00
2018-08-11T21:11:36.321Z,100.00
2018-08-11T21:14:03.844Z,100.00
2018-08-11T21:16:30.907Z,100.00
2018-08-11T21:18:57.875Z,100.00
2018-08-11T21:21:24.963Z,100.00
2018-08-11T21:23:52.061Z,100.00
2018-08-11T21:26:18.984Z,100.00
2018-08-11T21:28:45.988Z,100.00
2018-08-11T21:31:13.106Z,100.00
2018-08-11T21:33:40.232Z,100.00
2018-08-11T21:36:07.359Z,100.00
2018-08-11T21:38:34.571Z,100.00
2018-08-11T21:41:01.597Z,100.00
2018-08-11T21:43:28.728Z,100.00
2018-08-11T21:45:55.843Z,100.00
2018-08-11T21:48:22.851Z,100.00
2018-08-11T21:50:49.863Z,100.00
2018-08-11T21:53:16.855Z,100.00
2018-08-11T21:55:43.869Z,100.00
2018-08-11T21:58:11.093Z,99.71
2018-08-11T22:00:38.127Z,99.38
2018-08-11T22:03:06.401Z,99.38
2018-08-11T22:05:33.419Z,99.08
2018-08-11T22:08:01.628Z,99.38
2018-08-11T22:10:29.090Z,98.67
2018-08-11T22:12:56.139Z,99.42
2018-08-11T22:15:23.255Z,98.94
2018-08-11T22:17:50.296Z,99.48
2018-08-11T22:20:17.621Z,98.65
2018-08-11T22:22:44.719Z,99.32
2018-08-11T22:25:12.198Z,100.00
2018-08-11T22:27:39.507Z,100.00
2018-08-11T22:30:07.096Z,100.00
2018-08-11T22:32:34.447Z,100.00
2018-08-11T22:35:02.412Z,99.84
2018-08-11T22:37:29.483Z,100.00
2018-08-11T22:39:56.791Z,100.00
2018-08-11T22:42:23.915Z,99.96
2018-08-11T22:44:50.984Z,100.00
2018-08-11T22:47:18.229Z,100.00
2018-08-11T22:49:45.134Z,100.00
2018-08-11T22:52:12.302Z,100.00
2018-08-11T22:54:39.505Z,100.00
2018-08-11T22:57:06.531Z,100.00
2018-08-11T22:59:33.541Z,100.00
2018-08-11T23:02:00.544Z,100.00
2018-08-11T23:04:27.558Z,100.00
2018-08-11T23:06:54.645Z,100.00
2018-08-11T23:09:21.656Z,100.00
2018-08-11T23:11:48.700Z,100.00
2018-08-11T23:14:15.697Z,100.00
2018-08-11T23:16:42.698Z,100.00
2018-08-11T23:19:09.800Z,100.00
2018-08-11T23:21:36.898Z,100.00
2018-08-11T23:24:03.948Z,100.00
2018-08-11T23:26:31.028Z,100.00
2018-08-11T23:28:58.055Z,100.00
2018-08-11T23:31:25.100Z,100.00
2018-08-11T23:33:52.512Z,100.00
2018-08-11T23:36:19.662Z,100.00
2018-08-11T23:38:46.659Z,100.00
2018-08-11T23:41:13.760Z,100.00
2018-08-11T23:43:40.748Z,100.00
2018-08-11T23:46:07.769Z,100.00
2018-08-11T23:48:35.060Z,100.00
2018-08-11T23:51:02.148Z,100.00
2018-08-11T23:53:29.145Z,100.00
2018-08-11T23:55:56.180Z,100.00
2018-08-11T23:58:23.243Z,100.00
